sensor_id;sensor_type;location;lat;lon;timestamp;P1;durP1;ratioP1;P2;durP2;ratioP2
27225;SDS011;14732;51.074;3.788;2023-11-19T00:02:13;22.10;;;4.65;;
27225;SDS011;14732;51.074;3.788;2023-11-19T00:04:39;25.70;;;4.80;;
27225;SDS011;14732;51.074;3.788;2023-11-19T00:07:05;26.48;;;4.70;;
27225;SDS011;14732;51.074;3.788;2023-11-19T00:09:34;19.77;;;4.75;;
27225;SDS011;14732;51.074;3.788;2023-11-19T00:12:02;30.90;;;4.88;;
27225;SDS011;14732;51.074;3.788;2023-11-19T00:14:29;30.65;;;4.40;;
27225;SDS011;14732;51.074;3.788;2023-11-19T00:16:55;24.00;;;4.45;;
27225;SDS011;14732;51.074;3.788;2023-11-19T00:19:21;26.17;;;4.30;;
27225;SDS011;14732;51.074;3.788;2023-11-19T00:21:47;30.55;;;4.30;;
27225;SDS011;14732;51.074;3.788;2023-11-19T00:24:13;33.30;;;4.38;;
27225;SDS011;14732;51.074;3.788;2023-11-19T00:26:41;25.63;;;3.78;;
27225;SDS011;14732;51.074;3.788;2023-11-19T00:29:07;30.48;;;4.75;;
27225;SDS011;14732;51.074;3.788;2023-11-19T00:31:33;33.80;;;4.75;;
27225;SDS011;14732;51.074;3.788;2023-11-19T00:33:58;35.55;;;4.78;;
27225;SDS011;14732;51.074;3.788;2023-11-19T00:36:24;29.38;;;4.28;;
27225;SDS011;14732;51.074;3.788;2023-11-19T00:38:50;30.42;;;5.00;;
27225;SDS011;14732;51.074;3.788;2023-11-19T00:41:17;31.60;;;4.20;;
27225;SDS011;14732;51.074;3.788;2023-11-19T00:43:43;37.30;;;4.72;;
27225;SDS011;14732;51.074;3.788;2023-11-19T00:46:09;32.35;;;4.93;;
27225;SDS011;14732;51.074;3.788;2023-11-19T00:48:39;36.85;;;4.80;;
27225;SDS011;14732;51.074;3.788;2023-11-19T00:51:05;31.13;;;4.43;;
27225;SDS011;14732;51.074;3.788;2023-11-19T00:53:31;35.13;;;4.70;;
27225;SDS011;14732;51.074;3.788;2023-11-19T00:55:57;33.20;;;3.80;;
27225;SDS011;14732;51.074;3.788;2023-11-19T00:58:23;33.08;;;4.85;;
27225;SDS011;14732;51.074;3.788;2023-11-19T01:00:49;35.42;;;4.40;;
27225;SDS011;14732;51.074;3.788;2023-11-19T01:03:14;29.25;;;4.38;;
27225;SDS011;14732;51.074;3.788;2023-11-19T01:05:41;31.70;;;4.00;;
27225;SDS011;14732;51.074;3.788;2023-11-19T01:08:07;43.40;;;5.28;;
27225;SDS011;14732;51.074;3.788;2023-11-19T01:10:33;41.13;;;4.25;;
27225;SDS011;14732;51.074;3.788;2023-11-19T01:12:59;37.55;;;4.82;;
27225;SDS011;14732;51.074;3.788;2023-11-19T01:15:24;33.70;;;4.75;;
27225;SDS011;14732;51.074;3.788;2023-11-19T01:17:51;34.38;;;4.65;;
27225;SDS011;14732;51.074;3.788;2023-11-19T01:20:17;39.88;;;4.60;;
27225;SDS011;14732;51.074;3.788;2023-11-19T01:22:42;40.47;;;4.88;;
27225;SDS011;14732;51.074;3.788;2023-11-19T01:25:08;37.03;;;4.63;;
27225;SDS011;14732;51.074;3.788;2023-11-19T01:27:34;43.78;;;6.38;;
27225;SDS011;14732;51.074;3.788;2023-11-19T01:30:01;38.40;;;5.03;;
27225;SDS011;14732;51.074;3.788;2023-11-19T01:32:28;37.00;;;5.05;;
27225;SDS011;14732;51.074;3.788;2023-11-19T01:34:54;38.75;;;5.28;;
27225;SDS011;14732;51.074;3.788;2023-11-19T01:37:20;41.47;;;5.05;;
27225;SDS011;14732;51.074;3.788;2023-11-19T01:39:45;37.95;;;5.20;;
27225;SDS011;14732;51.074;3.788;2023-11-19T01:42:11;39.08;;;4.72;;
27225;SDS011;14732;51.074;3.788;2023-11-19T01:44:37;39.42;;;4.65;;
27225;SDS011;14732;51.074;3.788;2023-11-19T01:47:03;37.53;;;4.68;;
27225;SDS011;14732;51.074;3.788;2023-11-19T01:49:30;34.63;;;5.10;;
27225;SDS011;14732;51.074;3.788;2023-11-19T01:51:58;35.38;;;4.30;;
27225;SDS011;14732;51.074;3.788;2023-11-19T01:54:24;48.97;;;5.82;;
27225;SDS011;14732;51.074;3.788;2023-11-19T01:56:50;41.50;;;5.10;;
27225;SDS011;14732;51.074;3.788;2023-11-19T01:59:18;43.92;;;5.13;;
27225;SDS011;14732;51.074;3.788;2023-11-19T02:01:51;30.42;;;4.95;;
27225;SDS011;14732;51.074;3.788;2023-11-19T02:04:17;33.95;;;4.30;;
27225;SDS011;14732;51.074;3.788;2023-11-19T02:06:43;35.40;;;4.32;;
27225;SDS011;14732;51.074;3.788;2023-11-19T02:09:11;38.97;;;5.82;;
27225;SDS011;14732;51.074;3.788;2023-11-19T02:11:37;36.60;;;4.82;;
27225;SDS011;14732;51.074;3.788;2023-11-19T02:14:05;45.53;;;5.37;;
27225;SDS011;14732;51.074;3.788;2023-11-19T02:16:31;30.52;;;4.60;;
27225;SDS011;14732;51.074;3.788;2023-11-19T02:18:57;39.47;;;4.95;;
27225;SDS011;14732;51.074;3.788;2023-11-19T02:21:23;34.63;;;4.65;;
27225;SDS011;14732;51.074;3.788;2023-11-19T02:23:48;53.50;;;4.90;;
27225;SDS011;14732;51.074;3.788;2023-11-19T02:26:16;33.33;;;5.32;;
27225;SDS011;14732;51.074;3.788;2023-11-19T02:29:05;35.80;;;4.68;;
27225;SDS011;14732;51.074;3.788;2023-11-19T02:31:31;41.35;;;4.93;;
27225;SDS011;14732;51.074;3.788;2023-11-19T02:33:57;36.65;;;4.90;;
27225;SDS011;14732;51.074;3.788;2023-11-19T02:36:25;37.17;;;4.50;;
27225;SDS011;14732;51.074;3.788;2023-11-19T02:38:50;48.13;;;5.78;;
27225;SDS011;14732;51.074;3.788;2023-11-19T02:41:16;37.13;;;4.93;;
27225;SDS011;14732;51.074;3.788;2023-11-19T02:43:42;37.95;;;4.55;;
27225;SDS011;14732;51.074;3.788;2023-11-19T02:46:07;43.15;;;5.50;;
27225;SDS011;14732;51.074;3.788;2023-11-19T02:48:34;46.47;;;5.72;;
27225;SDS011;14732;51.074;3.788;2023-11-19T02:51:02;41.00;;;5.20;;
27225;SDS011;14732;51.074;3.788;2023-11-19T02:53:32;49.40;;;5.10;;
27225;SDS011;14732;51.074;3.788;2023-11-19T02:55:57;52.00;;;5.67;;
27225;SDS011;14732;51.074;3.788;2023-11-19T02:58:31;40.47;;;5.45;;
27225;SDS011;14732;51.074;3.788;2023-11-19T03:00:57;42.20;;;5.45;;
27225;SDS011;14732;51.074;3.788;2023-11-19T03:03:24;45.00;;;5.53;;
27225;SDS011;14732;51.074;3.788;2023-11-19T03:05:56;44.83;;;5.90;;
27225;SDS011;14732;51.074;3.788;2023-11-19T03:08:22;41.83;;;5.60;;
27225;SDS011;14732;51.074;3.788;2023-11-19T03:10:47;42.65;;;5.10;;
27225;SDS011;14732;51.074;3.788;2023-11-19T03:13:14;50.92;;;5.68;;
27225;SDS011;14732;51.074;3.788;2023-11-19T03:15:40;39.90;;;5.32;;
27225;SDS011;14732;51.074;3.788;2023-11-19T03:18:06;42.30;;;6.25;;
27225;SDS011;14732;51.074;3.788;2023-11-19T03:20:32;43.13;;;5.82;;
27225;SDS011;14732;51.074;3.788;2023-11-19T03:22:58;47.83;;;5.38;;
27225;SDS011;14732;51.074;3.788;2023-11-19T03:25:26;46.53;;;5.82;;
27225;SDS011;14732;51.074;3.788;2023-11-19T03:27:58;45.10;;;5.20;;
27225;SDS011;14732;51.074;3.788;2023-11-19T03:30:24;38.13;;;5.28;;
27225;SDS011;14732;51.074;3.788;2023-11-19T03:32:50;43.17;;;4.93;;
27225;SDS011;14732;51.074;3.788;2023-11-19T03:35:15;42.95;;;5.80;;
27225;SDS011;14732;51.074;3.788;2023-11-19T03:37:41;43.85;;;5.18;;
27225;SDS011;14732;51.074;3.788;2023-11-19T03:40:08;40.88;;;5.78;;
27225;SDS011;14732;51.074;3.788;2023-11-19T03:42:35;46.40;;;5.53;;
27225;SDS011;14732;51.074;3.788;2023-11-19T03:45:01;40.70;;;5.03;;
27225;SDS011;14732;51.074;3.788;2023-11-19T03:47:28;35.80;;;4.25;;
27225;SDS011;14732;51.074;3.788;2023-11-19T03:49:54;41.25;;;5.53;;
27225;SDS011;14732;51.074;3.788;2023-11-19T03:52:20;38.38;;;5.15;;
27225;SDS011;14732;51.074;3.788;2023-11-19T03:54:45;44.85;;;5.97;;
27225;SDS011;14732;51.074;3.788;2023-11-19T03:57:12;38.85;;;4.88;;
27225;SDS011;14732;51.074;3.788;2023-11-19T03:59:38;47.53;;;5.57;;
27225;SDS011;14732;51.074;3.788;2023-11-19T04:02:04;39.22;;;6.20;;
27225;SDS011;14732;51.074;3.788;2023-11-19T04:04:31;39.83;;;5.65;;
27225;SDS011;14732;51.074;3.788;2023-11-19T04:06:57;46.50;;;4.95;;
27225;SDS011;14732;51.074;3.788;2023-11-19T04:09:23;39.00;;;4.82;;
27225;SDS011;14732;51.074;3.788;2023-11-19T04:11:49;39.15;;;4.57;;
27225;SDS011;14732;51.074;3.788;2023-11-19T04:14:14;42.63;;;5.68;;
27225;SDS011;14732;51.074;3.788;2023-11-19T04:16:43;44.30;;;5.78;;
27225;SDS011;14732;51.074;3.788;2023-11-19T04:19:09;41.83;;;5.32;;
27225;SDS011;14732;51.074;3.788;2023-11-19T04:21:35;39.05;;;5.85;;
27225;SDS011;14732;51.074;3.788;2023-11-19T04:24:00;42.63;;;5.32;;
27225;SDS011;14732;51.074;3.788;2023-11-19T04:26:26;44.90;;;5.40;;
27225;SDS011;14732;51.074;3.788;2023-11-19T04:28:52;43.38;;;5.70;;
27225;SDS011;14732;51.074;3.788;2023-11-19T04:31:18;40.63;;;5.15;;
27225;SDS011;14732;51.074;3.788;2023-11-19T04:33:43;39.97;;;4.97;;
27225;SDS011;14732;51.074;3.788;2023-11-19T04:36:09;50.92;;;5.28;;
27225;SDS011;14732;51.074;3.788;2023-11-19T04:38:35;40.38;;;5.95;;
27225;SDS011;14732;51.074;3.788;2023-11-19T04:41:03;37.40;;;5.00;;
27225;SDS011;14732;51.074;3.788;2023-11-19T04:43:30;40.55;;;4.80;;
27225;SDS011;14732;51.074;3.788;2023-11-19T04:45:57;44.40;;;5.32;;
27225;SDS011;14732;51.074;3.788;2023-11-19T04:48:23;50.28;;;5.18;;
27225;SDS011;14732;51.074;3.788;2023-11-19T04:50:49;45.17;;;5.35;;
27225;SDS011;14732;51.074;3.788;2023-11-19T04:53:16;48.70;;;5.20;;
27225;SDS011;14732;51.074;3.788;2023-11-19T04:55:42;36.67;;;4.80;;
27225;SDS011;14732;51.074;3.788;2023-11-19T04:58:08;35.35;;;4.97;;
27225;SDS011;14732;51.074;3.788;2023-11-19T05:00:34;43.72;;;5.63;;
27225;SDS011;14732;51.074;3.788;2023-11-19T05:02:59;44.00;;;6.15;;
27225;SDS011;14732;51.074;3.788;2023-11-19T05:05:25;47.08;;;5.57;;
27225;SDS011;14732;51.074;3.788;2023-11-19T05:07:51;39.22;;;4.80;;
27225;SDS011;14732;51.074;3.788;2023-11-19T05:10:16;42.15;;;5.22;;
27225;SDS011;14732;51.074;3.788;2023-11-19T05:12:42;33.28;;;5.05;;
27225;SDS011;14732;51.074;3.788;2023-11-19T05:15:08;40.78;;;5.40;;
27225;SDS011;14732;51.074;3.788;2023-11-19T05:17:34;40.30;;;5.13;;
27225;SDS011;14732;51.074;3.788;2023-11-19T05:19:59;39.70;;;5.35;;
27225;SDS011;14732;51.074;3.788;2023-11-19T05:22:25;41.08;;;5.05;;
27225;SDS011;14732;51.074;3.788;2023-11-19T05:24:51;53.50;;;6.47;;
27225;SDS011;14732;51.074;3.788;2023-11-19T05:27:17;38.60;;;5.55;;
27225;SDS011;14732;51.074;3.788;2023-11-19T05:29:42;42.67;;;5.60;;
27225;SDS011;14732;51.074;3.788;2023-11-19T05:32:09;55.03;;;5.75;;
27225;SDS011;14732;51.074;3.788;2023-11-19T05:34:35;40.50;;;5.00;;
27225;SDS011;14732;51.074;3.788;2023-11-19T05:37:00;47.40;;;5.25;;
27225;SDS011;14732;51.074;3.788;2023-11-19T05:39:27;51.28;;;6.18;;
27225;SDS011;14732;51.074;3.788;2023-11-19T05:41:53;44.97;;;6.20;;
27225;SDS011;14732;51.074;3.788;2023-11-19T05:44:18;56.88;;;6.47;;
27225;SDS011;14732;51.074;3.788;2023-11-19T05:46:44;44.33;;;5.20;;
27225;SDS011;14732;51.074;3.788;2023-11-19T05:49:11;55.42;;;5.80;;
27225;SDS011;14732;51.074;3.788;2023-11-19T05:51:40;46.55;;;5.75;;
27225;SDS011;14732;51.074;3.788;2023-11-19T05:54:09;54.85;;;7.13;;
27225;SDS011;14732;51.074;3.788;2023-11-19T05:56:35;47.78;;;6.63;;
27225;SDS011;14732;51.074;3.788;2023-11-19T05:59:01;42.80;;;5.63;;
27225;SDS011;14732;51.074;3.788;2023-11-19T06:01:29;43.08;;;5.65;;
27225;SDS011;14732;51.074;3.788;2023-11-19T06:03:54;55.13;;;5.57;;
27225;SDS011;14732;51.074;3.788;2023-11-19T06:06:20;54.08;;;6.20;;
27225;SDS011;14732;51.074;3.788;2023-11-19T06:08:46;41.22;;;5.47;;
27225;SDS011;14732;51.074;3.788;2023-11-19T06:11:12;45.40;;;5.93;;
27225;SDS011;14732;51.074;3.788;2023-11-19T06:13:44;47.92;;;5.43;;
27225;SDS011;14732;51.074;3.788;2023-11-19T06:16:09;45.03;;;5.30;;
27225;SDS011;14732;51.074;3.788;2023-11-19T06:18:38;43.75;;;5.40;;
27225;SDS011;14732;51.074;3.788;2023-11-19T06:21:04;53.60;;;5.88;;
27225;SDS011;14732;51.074;3.788;2023-11-19T06:23:31;41.30;;;5.13;;
27225;SDS011;14732;51.074;3.788;2023-11-19T06:25:56;46.55;;;5.38;;
27225;SDS011;14732;51.074;3.788;2023-11-19T06:28:22;44.83;;;5.32;;
27225;SDS011;14732;51.074;3.788;2023-11-19T06:30:47;38.30;;;5.47;;
27225;SDS011;14732;51.074;3.788;2023-11-19T06:33:13;45.35;;;4.78;;
27225;SDS011;14732;51.074;3.788;2023-11-19T06:35:39;48.47;;;6.15;;
27225;SDS011;14732;51.074;3.788;2023-11-19T06:38:05;53.15;;;6.07;;
27225;SDS011;14732;51.074;3.788;2023-11-19T06:40:31;46.70;;;6.35;;
27225;SDS011;14732;51.074;3.788;2023-11-19T06:43:00;48.05;;;5.32;;
27225;SDS011;14732;51.074;3.788;2023-11-19T06:45:27;41.40;;;5.25;;
27225;SDS011;14732;51.074;3.788;2023-11-19T06:47:53;44.85;;;5.00;;
27225;SDS011;14732;51.074;3.788;2023-11-19T06:50:19;46.80;;;5.72;;
27225;SDS011;14732;51.074;3.788;2023-11-19T06:52:44;43.67;;;5.38;;
27225;SDS011;14732;51.074;3.788;2023-11-19T06:55:10;45.97;;;5.57;;
27225;SDS011;14732;51.074;3.788;2023-11-19T06:57:36;43.20;;;5.65;;
27225;SDS011;14732;51.074;3.788;2023-11-19T07:00:02;41.50;;;5.93;;
27225;SDS011;14732;51.074;3.788;2023-11-19T07:02:30;49.03;;;4.82;;
27225;SDS011;14732;51.074;3.788;2023-11-19T07:04:56;40.75;;;5.38;;
27225;SDS011;14732;51.074;3.788;2023-11-19T07:07:22;56.50;;;5.55;;
27225;SDS011;14732;51.074;3.788;2023-11-19T07:09:48;54.00;;;6.50;;
27225;SDS011;14732;51.074;3.788;2023-11-19T07:12:13;46.03;;;5.57;;
27225;SDS011;14732;51.074;3.788;2023-11-19T07:14:39;50.70;;;5.90;;
27225;SDS011;14732;51.074;3.788;2023-11-19T07:17:06;54.15;;;6.03;;
27225;SDS011;14732;51.074;3.788;2023-11-19T07:19:34;52.03;;;5.63;;
27225;SDS011;14732;51.074;3.788;2023-11-19T07:22:01;42.65;;;5.75;;
27225;SDS011;14732;51.074;3.788;2023-11-19T07:24:27;45.00;;;5.15;;
27225;SDS011;14732;51.074;3.788;2023-11-19T07:26:53;57.85;;;5.97;;
27225;SDS011;14732;51.074;3.788;2023-11-19T07:29:19;46.30;;;5.82;;
27225;SDS011;14732;51.074;3.788;2023-11-19T07:31:47;55.50;;;6.13;;
27225;SDS011;14732;51.074;3.788;2023-11-19T07:34:14;54.83;;;5.85;;
27225;SDS011;14732;51.074;3.788;2023-11-19T07:36:39;45.67;;;6.22;;
27225;SDS011;14732;51.074;3.788;2023-11-19T07:39:05;50.90;;;6.70;;
27225;SDS011;14732;51.074;3.788;2023-11-19T07:41:32;51.65;;;5.88;;
27225;SDS011;14732;51.074;3.788;2023-11-19T07:43:57;54.92;;;6.43;;
27225;SDS011;14732;51.074;3.788;2023-11-19T07:46:23;54.55;;;5.93;;
27225;SDS011;14732;51.074;3.788;2023-11-19T07:48:50;47.17;;;5.65;;
27225;SDS011;14732;51.074;3.788;2023-11-19T07:51:15;49.88;;;5.85;;
27225;SDS011;14732;51.074;3.788;2023-11-19T07:53:41;60.63;;;5.72;;
27225;SDS011;14732;51.074;3.788;2023-11-19T07:56:07;52.50;;;5.80;;
27225;SDS011;14732;51.074;3.788;2023-11-19T07:58:33;56.10;;;7.43;;
27225;SDS011;14732;51.074;3.788;2023-11-19T08:00:59;47.38;;;6.13;;
27225;SDS011;14732;51.074;3.788;2023-11-19T08:03:25;40.03;;;5.28;;
27225;SDS011;14732;51.074;3.788;2023-11-19T08:05:51;42.47;;;5.53;;
27225;SDS011;14732;51.074;3.788;2023-11-19T08:08:16;49.30;;;6.30;;
27225;SDS011;14732;51.074;3.788;2023-11-19T08:10:42;50.50;;;5.40;;
27225;SDS011;14732;51.074;3.788;2023-11-19T08:13:09;55.72;;;5.97;;
27225;SDS011;14732;51.074;3.788;2023-11-19T08:15:36;45.70;;;5.90;;
27225;SDS011;14732;51.074;3.788;2023-11-19T08:18:01;50.08;;;5.80;;
27225;SDS011;14732;51.074;3.788;2023-11-19T08:20:27;49.58;;;6.10;;
27225;SDS011;14732;51.074;3.788;2023-11-19T08:22:53;51.65;;;6.20;;
27225;SDS011;14732;51.074;3.788;2023-11-19T08:25:18;42.53;;;6.35;;
27225;SDS011;14732;51.074;3.788;2023-11-19T08:27:44;51.35;;;5.97;;
27225;SDS011;14732;51.074;3.788;2023-11-19T08:30:10;44.55;;;5.85;;
27225;SDS011;14732;51.074;3.788;2023-11-19T08:32:36;46.25;;;5.47;;
27225;SDS011;14732;51.074;3.788;2023-11-19T08:35:02;45.53;;;5.80;;
27225;SDS011;14732;51.074;3.788;2023-11-19T08:37:28;42.67;;;5.88;;
27225;SDS011;14732;51.074;3.788;2023-11-19T08:39:53;52.40;;;5.93;;
27225;SDS011;14732;51.074;3.788;2023-11-19T08:42:19;51.40;;;6.35;;
27225;SDS011;14732;51.074;3.788;2023-11-19T08:44:49;39.88;;;5.05;;
27225;SDS011;14732;51.074;3.788;2023-11-19T08:47:16;40.25;;;5.30;;
27225;SDS011;14732;51.074;3.788;2023-11-19T08:49:45;44.30;;;5.53;;
27225;SDS011;14732;51.074;3.788;2023-11-19T08:52:11;31.63;;;4.60;;
27225;SDS011;14732;51.074;3.788;2023-11-19T08:54:37;35.60;;;4.95;;
27225;SDS011;14732;51.074;3.788;2023-11-19T08:57:03;33.80;;;5.10;;
27225;SDS011;14732;51.074;3.788;2023-11-19T08:59:29;39.47;;;5.38;;
27225;SDS011;14732;51.074;3.788;2023-11-19T09:01:55;37.85;;;4.95;;
27225;SDS011;14732;51.074;3.788;2023-11-19T09:04:21;39.80;;;5.50;;
27225;SDS011;14732;51.074;3.788;2023-11-19T09:06:50;38.63;;;6.47;;
27225;SDS011;14732;51.074;3.788;2023-11-19T09:09:16;37.85;;;5.00;;
27225;SDS011;14732;51.074;3.788;2023-11-19T09:11:42;39.05;;;5.15;;
27225;SDS011;14732;51.074;3.788;2023-11-19T09:14:07;44.80;;;6.00;;
27225;SDS011;14732;51.074;3.788;2023-11-19T09:16:33;29.27;;;4.82;;
27225;SDS011;14732;51.074;3.788;2023-11-19T09:18:59;44.00;;;5.82;;
27225;SDS011;14732;51.074;3.788;2023-11-19T09:21:25;47.42;;;5.43;;
27225;SDS011;14732;51.074;3.788;2023-11-19T09:23:51;41.40;;;6.32;;
27225;SDS011;14732;51.074;3.788;2023-11-19T09:26:19;42.08;;;5.90;;
27225;SDS011;14732;51.074;3.788;2023-11-19T09:28:44;34.85;;;5.40;;
27225;SDS011;14732;51.074;3.788;2023-11-19T09:31:17;44.70;;;6.15;;
27225;SDS011;14732;51.074;3.788;2023-11-19T09:33:43;38.10;;;5.28;;
27225;SDS011;14732;51.074;3.788;2023-11-19T09:36:11;39.63;;;4.88;;
27225;SDS011;14732;51.074;3.788;2023-11-19T09:38:39;44.33;;;4.85;;
27225;SDS011;14732;51.074;3.788;2023-11-19T09:41:10;32.63;;;4.60;;
27225;SDS011;14732;51.074;3.788;2023-11-19T09:43:41;32.20;;;5.10;;
27225;SDS011;14732;51.074;3.788;2023-11-19T09:46:10;46.08;;;5.90;;
27225;SDS011;14732;51.074;3.788;2023-11-19T09:48:41;37.63;;;5.07;;
27225;SDS011;14732;51.074;3.788;2023-11-19T09:51:11;39.70;;;4.90;;
27225;SDS011;14732;51.074;3.788;2023-11-19T09:53:37;35.65;;;4.35;;
27225;SDS011;14732;51.074;3.788;2023-11-19T09:56:04;38.28;;;4.78;;
27225;SDS011;14732;51.074;3.788;2023-11-19T09:58:30;28.52;;;4.20;;
27225;SDS011;14732;51.074;3.788;2023-11-19T10:00:57;26.55;;;4.18;;
27225;SDS011;14732;51.074;3.788;2023-11-19T10:03:24;34.33;;;4.75;;
27225;SDS011;14732;51.074;3.788;2023-11-19T10:05:58;31.58;;;4.95;;
27225;SDS011;14732;51.074;3.788;2023-11-19T10:08:25;40.92;;;5.22;;
27225;SDS011;14732;51.074;3.788;2023-11-19T10:10:51;31.05;;;4.38;;
27225;SDS011;14732;51.074;3.788;2023-11-19T10:13:17;34.15;;;4.72;;
27225;SDS011;14732;51.074;3.788;2023-11-19T10:15:43;35.10;;;4.82;;
27225;SDS011;14732;51.074;3.788;2023-11-19T10:18:09;33.15;;;4.32;;
27225;SDS011;14732;51.074;3.788;2023-11-19T10:20:35;34.63;;;5.45;;
27225;SDS011;14732;51.074;3.788;2023-11-19T10:23:02;33.47;;;4.43;;
27225;SDS011;14732;51.074;3.788;2023-11-19T10:25:28;34.53;;;4.63;;
27225;SDS011;14732;51.074;3.788;2023-11-19T10:27:55;35.40;;;4.63;;
27225;SDS011;14732;51.074;3.788;2023-11-19T10:30:24;41.58;;;4.60;;
27225;SDS011;14732;51.074;3.788;2023-11-19T10:35:36;39.13;;;4.28;;
27225;SDS011;14732;51.074;3.788;2023-11-19T10:38:17;27.98;;;3.97;;
27225;SDS011;14732;51.074;3.788;2023-11-19T10:40:42;37.33;;;4.93;;
27225;SDS011;14732;51.074;3.788;2023-11-19T10:43:08;30.25;;;4.88;;
27225;SDS011;14732;51.074;3.788;2023-11-19T10:45:38;38.15;;;4.57;;
27225;SDS011;14732;51.074;3.788;2023-11-19T10:50:33;35.87;;;5.13;;
27225;SDS011;14732;51.074;3.788;2023-11-19T10:53:00;39.97;;;4.93;;
27225;SDS011;14732;51.074;3.788;2023-11-19T10:55:27;35.50;;;4.43;;
27225;SDS011;14732;51.074;3.788;2023-11-19T10:57:58;45.63;;;4.90;;
27225;SDS011;14732;51.074;3.788;2023-11-19T11:00:25;31.23;;;4.50;;
27225;SDS011;14732;51.074;3.788;2023-11-19T11:02:54;32.55;;;4.70;;
27225;SDS011;14732;51.074;3.788;2023-11-19T11:05:24;32.05;;;4.57;;
27225;SDS011;14732;51.074;3.788;2023-11-19T11:07:52;31.92;;;4.32;;
27225;SDS011;14732;51.074;3.788;2023-11-19T11:10:20;35.90;;;4.60;;
27225;SDS011;14732;51.074;3.788;2023-11-19T11:12:51;33.03;;;4.32;;
27225;SDS011;14732;51.074;3.788;2023-11-19T11:15:23;30.73;;;4.22;;
27225;SDS011;14732;51.074;3.788;2023-11-19T11:17:52;34.00;;;4.63;;
27225;SDS011;14732;51.074;3.788;2023-11-19T11:20:31;29.60;;;4.25;;
27225;SDS011;14732;51.074;3.788;2023-11-19T11:28:48;28.63;;;4.53;;
27225;SDS011;14732;51.074;3.788;2023-11-19T11:36:31;35.38;;;4.72;;
27225;SDS011;14732;51.074;3.788;2023-11-19T11:39:00;37.20;;;5.13;;
27225;SDS011;14732;51.074;3.788;2023-11-19T11:41:28;40.15;;;4.38;;
27225;SDS011;14732;51.074;3.788;2023-11-19T11:43:56;30.48;;;4.25;;
27225;SDS011;14732;51.074;3.788;2023-11-19T11:48:58;31.20;;;4.78;;
27225;SDS011;14732;51.074;3.788;2023-11-19T11:54:31;32.58;;;4.75;;
27225;SDS011;14732;51.074;3.788;2023-11-19T12:02:11;40.22;;;4.55;;
27225;SDS011;14732;51.074;3.788;2023-11-19T12:04:41;35.75;;;5.18;;
27225;SDS011;14732;51.074;3.788;2023-11-19T12:07:08;38.20;;;4.95;;
27225;SDS011;14732;51.074;3.788;2023-11-19T12:09:41;36.20;;;4.80;;
27225;SDS011;14732;51.074;3.788;2023-11-19T12:20:04;36.70;;;4.53;;
27225;SDS011;14732;51.074;3.788;2023-11-19T12:22:38;30.40;;;4.28;;
27225;SDS011;14732;51.074;3.788;2023-11-19T12:25:05;31.65;;;4.60;;
27225;SDS011;14732;51.074;3.788;2023-11-19T12:27:31;31.77;;;4.53;;
27225;SDS011;14732;51.074;3.788;2023-11-19T12:29:59;41.30;;;4.70;;
27225;SDS011;14732;51.074;3.788;2023-11-19T12:32:25;33.20;;;4.30;;
27225;SDS011;14732;51.074;3.788;2023-11-19T12:34:50;28.35;;;3.72;;
27225;SDS011;14732;51.074;3.788;2023-11-19T12:37:16;29.02;;;4.40;;
27225;SDS011;14732;51.074;3.788;2023-11-19T12:39:42;33.35;;;4.32;;
27225;SDS011;14732;51.074;3.788;2023-11-19T12:42:08;39.08;;;5.55;;
27225;SDS011;14732;51.074;3.788;2023-11-19T12:44:34;27.73;;;4.18;;
27225;SDS011;14732;51.074;3.788;2023-11-19T12:47:00;37.05;;;5.00;;
27225;SDS011;14732;51.074;3.788;2023-11-19T12:49:30;33.00;;;3.97;;
27225;SDS011;14732;51.074;3.788;2023-11-19T12:51:56;33.90;;;4.07;;
27225;SDS011;14732;51.074;3.788;2023-11-19T12:54:31;31.42;;;4.25;;
27225;SDS011;14732;51.074;3.788;2023-11-19T12:57:00;30.23;;;4.28;;
27225;SDS011;14732;51.074;3.788;2023-11-19T12:59:27;25.23;;;3.78;;
27225;SDS011;14732;51.074;3.788;2023-11-19T13:01:53;33.47;;;4.45;;
27225;SDS011;14732;51.074;3.788;2023-11-19T13:04:29;35.97;;;4.53;;
27225;SDS011;14732;51.074;3.788;2023-11-19T13:06:58;31.38;;;4.28;;
27225;SDS011;14732;51.074;3.788;2023-11-19T13:09:28;36.15;;;4.57;;
27225;SDS011;14732;51.074;3.788;2023-11-19T13:11:54;29.10;;;4.30;;
27225;SDS011;14732;51.074;3.788;2023-11-19T13:14:21;36.15;;;4.03;;
27225;SDS011;14732;51.074;3.788;2023-11-19T13:16:47;30.17;;;4.20;;
27225;SDS011;14732;51.074;3.788;2023-11-19T13:19:13;28.42;;;4.05;;
27225;SDS011;14732;51.074;3.788;2023-11-19T13:21:39;33.42;;;4.35;;
27225;SDS011;14732;51.074;3.788;2023-11-19T13:24:05;28.35;;;4.00;;
27225;SDS011;14732;51.074;3.788;2023-11-19T13:26:31;29.50;;;3.65;;
27225;SDS011;14732;51.074;3.788;2023-11-19T13:28:57;28.48;;;4.32;;
27225;SDS011;14732;51.074;3.788;2023-11-19T13:31:22;29.95;;;4.18;;
27225;SDS011;14732;51.074;3.788;2023-11-19T13:33:48;27.30;;;4.32;;
27225;SDS011;14732;51.074;3.788;2023-11-19T13:36:14;29.52;;;4.22;;
27225;SDS011;14732;51.074;3.788;2023-11-19T13:38:40;37.45;;;4.32;;
27225;SDS011;14732;51.074;3.788;2023-11-19T13:41:09;25.73;;;4.80;;
27225;SDS011;14732;51.074;3.788;2023-11-19T13:43:36;36.58;;;4.72;;
27225;SDS011;14732;51.074;3.788;2023-11-19T13:46:02;35.67;;;5.13;;
27225;SDS011;14732;51.074;3.788;2023-11-19T13:48:28;30.77;;;4.35;;
27225;SDS011;14732;51.074;3.788;2023-11-19T13:50:55;36.88;;;4.85;;
27225;SDS011;14732;51.074;3.788;2023-11-19T13:53:21;30.63;;;4.47;;
27225;SDS011;14732;51.074;3.788;2023-11-19T13:55:48;38.80;;;5.40;;
27225;SDS011;14732;51.074;3.788;2023-11-19T13:58:13;36.58;;;5.00;;
27225;SDS011;14732;51.074;3.788;2023-11-19T14:00:39;28.42;;;4.63;;
27225;SDS011;14732;51.074;3.788;2023-11-19T14:03:07;42.33;;;4.68;;
27225;SDS011;14732;51.074;3.788;2023-11-19T14:05:32;35.88;;;4.88;;
27225;SDS011;14732;51.074;3.788;2023-11-19T14:07:58;37.88;;;4.43;;
27225;SDS011;14732;51.074;3.788;2023-11-19T14:10:24;36.47;;;4.93;;
27225;SDS011;14732;51.074;3.788;2023-11-19T14:12:49;33.15;;;5.18;;
27225;SDS011;14732;51.074;3.788;2023-11-19T14:15:15;33.00;;;4.10;;
27225;SDS011;14732;51.074;3.788;2023-11-19T14:17:44;31.42;;;5.13;;
27225;SDS011;14732;51.074;3.788;2023-11-19T14:20:10;30.98;;;4.32;;
27225;SDS011;14732;51.074;3.788;2023-11-19T14:22:40;32.00;;;4.82;;
27225;SDS011;14732;51.074;3.788;2023-11-19T14:25:07;27.88;;;3.50;;
27225;SDS011;14732;51.074;3.788;2023-11-19T14:27:37;29.85;;;4.80;;
27225;SDS011;14732;51.074;3.788;2023-11-19T14:30:04;30.13;;;5.07;;
27225;SDS011;14732;51.074;3.788;2023-11-19T14:32:30;29.83;;;3.78;;
27225;SDS011;14732;51.074;3.788;2023-11-19T14:34:56;28.95;;;4.45;;
27225;SDS011;14732;51.074;3.788;2023-11-19T14:37:22;25.02;;;3.55;;
27225;SDS011;14732;51.074;3.788;2023-11-19T14:39:48;32.78;;;4.25;;
27225;SDS011;14732;51.074;3.788;2023-11-19T14:42:15;33.55;;;4.47;;
27225;SDS011;14732;51.074;3.788;2023-11-19T14:44:42;29.23;;;4.07;;
27225;SDS011;14732;51.074;3.788;2023-11-19T14:47:07;37.88;;;4.43;;
27225;SDS011;14732;51.074;3.788;2023-11-19T14:49:36;34.92;;;5.05;;
27225;SDS011;14732;51.074;3.788;2023-11-19T14:52:04;35.92;;;4.82;;
27225;SDS011;14732;51.074;3.788;2023-11-19T14:54:30;35.40;;;4.72;;
27225;SDS011;14732;51.074;3.788;2023-11-19T14:56:56;26.30;;;4.07;;
27225;SDS011;14732;51.074;3.788;2023-11-19T14:59:22;31.05;;;4.40;;
27225;SDS011;14732;51.074;3.788;2023-11-19T15:01:48;27.95;;;4.60;;
27225;SDS011;14732;51.074;3.788;2023-11-19T15:04:13;34.42;;;4.35;;
27225;SDS011;14732;51.074;3.788;2023-11-19T15:06:39;30.88;;;4.30;;